Nur fliegen ist schöner ....

Willkommen beim Flugservice Bautzen GmbH

Wir sind eine nach europäischen Richtlinien zugelassene Flugschule und lizenziertes Luftfahrtunternehmen. Bei uns können sie nicht nur Rundflüge über die Oberlausitz oder Sachsen buchen, sondern in unserer Flugschule selber das Fliegen erlernen. Erfahrene Fluglehrer stehen Ihnen dabei zur Seite.

Wir bieten Ihnen außerdem spezielle Flüge zur Vermessung oder Fotoflüge für Luftbildaufnahmen an. In Zusammenarbeit mit dem Fallschirmsportclub Dresden und dem Cottbuser Fallschirmsportclub setzen wir am Flugplatz Bautzen und Neuhausen Fallschirmspringer ab.
Schauen Sie sich in Ruhe bei uns um und wenn Sie Fragen haben oder weitere Informationen benötigen, scheuen Sie sich nicht Kontakt mit uns aufzunehmen.

Gutscheine für Rundflüge und Tandemsprünge können Sie ganz leicht auch online in unserem Shop erwerben.

Terminkalender

Letzter Monat September 2021 Nächster Monat
Mo Di Mi Do Fr Sa So
week 35 1 2 3 4 5
week 36 6 7 8 9 10 11 12
week 37 13 14 15 16 17 18 19
week 38 20 21 22 23 24 25 26
week 39 27 28 29 30

Flugwetterinfo

[Quelle: ADDS]
METAR
EDDC 211350Z 29007KT 240V320 9999 FEW038 13/08 Q1027 NOSIG =
EDDC 211100Z 2112/2212 25006KT 9999 FEW015 BKN045 BECMG 2122/2124 31009KT TEMPO 2122/2206 RA SCT007 BKN012 PROB40 TEMPO 2204/2207 BKN007 BECMG 2206/2208 BKN014 BECMG 2208/2212 BKN015
TAF
EDDC 211100Z 2112/2212 25006KT 9999 FEW015 BKN045 BECMG 2122/2124 31009KT TEMPO 2122/2206 RA SCT007 BKN012 PROB40 TEMPO 2204/2207 BKN007 BECMG 2206/2208 BKN014 BECMG 2208/2212 BKN015 =
SR / SS: 04:46 / 17:02 UTC (EDAB Flugplatz Bautzen 2021-09-21)

Öffnungszeiten

des Flugplatzes Bautzen erfahren Sie hier:

flugplatz bautzen logo
Flugservice Bautzen GmbH, Kornmarkt 34, 02625 Bautzen  Telefon: +49 (3591) 211105, Telefax: +49 (3591) 274512, E-Mail:  flugservice(at)fsbautzen.de